Time;durP1;ratioP1;P1;durP2;ratioP2;P2;SDS_P1;SDS_P2;PMS_P1;PMS_P2;Temp;Humidity;BMP_temperature;BMP_pressure;BME280_temperature;BME280_humidity;BME280_pressure;Samples;Min_cycle;Max_cycle;Signal;HPM_P1;HPM_P2
2021/04/28 00:01:38;;;;;;;27.87;10.57;;;4.30;58.20;;;;;;4395468;28;656704;-68
2021/04/28 00:04:25;;;;;;;29.13;9.47;;;4.30;58.50;;;;;;4428636;28;658161;-68
2021/04/28 00:07:13;;;;;;;20.63;8.03;;;4.20;58.60;;;;;;4412248;28;656699;-68
2021/04/28 00:10:00;;;;;;;18.47;8.23;;;4.10;59.40;;;;;;4436678;28;657479;-68
2021/04/28 00:12:47;;;;;;;20.73;7.63;;;4.10;59.20;;;;;;4430400;28;657176;-67
2021/04/28 00:15:36;;;;;;;17.40;6.70;;;4.00;59.30;;;;;;4452684;28;657422;-68
2021/04/28 00:18:23;;;;;;;17.83;7.40;;;3.90;59.40;;;;;;4423576;28;656671;-68
2021/04/28 00:21:10;;;;;;;19.50;7.37;;;3.90;60.00;;;;;;4453088;28;657752;-68
2021/04/28 00:23:58;;;;;;;17.90;6.90;;;3.80;59.40;;;;;;4435643;28;656514;-68
2021/04/28 00:26:45;;;;;;;15.73;6.60;;;3.80;60.00;;;;;;4442021;28;657753;-69
2021/04/28 00:29:32;;;;;;;26.73;8.98;;;3.70;60.10;;;;;;4427936;28;656736;-68
2021/04/28 00:32:19;;;;;;;27.33;9.13;;;3.70;60.30;;;;;;4452696;28;656338;-68
2021/04/28 00:35:08;;;;;;;25.17;8.33;;;3.60;60.50;;;;;;4451905;28;656065;-68
2021/04/28 00:37:55;;;;;;;25.25;7.68;;;3.60;60.70;;;;;;4422746;28;657828;-67
2021/04/28 00:40:42;;;;;;;15.93;6.70;;;3.50;60.80;;;;;;4448708;28;657372;-68
2021/04/28 00:43:29;;;;;;;18.33;7.13;;;3.40;61.20;;;;;;4427982;28;657045;-68
2021/04/28 00:46:16;;;;;;;19.60;7.37;;;3.40;61.20;;;;;;4447667;28;657300;-68
2021/04/28 00:49:04;;;;;;;18.05;6.53;;;3.40;61.50;;;;;;4421405;28;656575;-68
2021/04/28 00:51:51;;;;;;;12.77;5.80;;;3.30;61.40;;;;;;4447766;28;656984;-68
2021/04/28 00:54:37;;;;;;;17.53;6.90;;;3.30;61.80;;;;;;4429154;28;657211;-68
2021/04/28 00:57:25;;;;;;;20.20;6.67;;;3.30;62.10;;;;;;4447985;28;657858;-68
2021/04/28 01:00:14;;;;;;;17.70;6.90;;;3.20;62.30;;;;;;4429215;28;656269;-69
2021/04/28 01:03:01;;;;;;;16.47;7.07;;;3.20;62.30;;;;;;4440885;28;657327;-69
2021/04/28 01:05:48;;;;;;;18.63;7.10;;;3.20;62.40;;;;;;4428573;28;656497;-69
2021/04/28 01:08:35;;;;;;;15.43;6.77;;;3.10;62.50;;;;;;4448301;28;657668;-68
2021/04/28 01:11:23;;;;;;;13.70;6.28;;;3.10;62.40;;;;;;4429647;28;656833;-68
2021/04/28 01:14:11;;;;;;;17.30;6.47;;;3.00;62.60;;;;;;4448167;28;656732;-68
2021/04/28 01:16:59;;;;;;;13.07;6.53;;;3.00;62.60;;;;;;4424810;28;657097;-69
2021/04/28 01:19:46;;;;;;;17.60;7.10;;;3.00;62.70;;;;;;4442141;28;657023;-68
2021/04/28 01:22:37;;;;;;;17.63;6.20;;;3.00;62.80;;;;;;4417548;28;656507;-68
2021/04/28 01:25:25;;;;;;;19.73;6.60;;;3.00;62.80;;;;;;4428550;28;656434;-68
2021/04/28 01:28:14;;;;;;;17.83;6.87;;;2.90;63.00;;;;;;4447927;28;656720;-68
2021/04/28 01:31:04;;;;;;;15.17;6.10;;;2.90;63.20;;;;;;4440924;28;656697;-68
2021/04/28 01:33:52;;;;;;;15.57;6.40;;;2.90;63.20;;;;;;4423876;28;657309;-69
2021/04/28 01:36:39;;;;;;;23.83;7.33;;;2.80;63.20;;;;;;4421758;28;657424;-70
2021/04/28 01:39:27;;;;;;;23.43;7.90;;;2.80;63.20;;;;;;4447609;28;656363;-70
2021/04/28 01:42:15;;;;;;;16.17;6.60;;;2.80;63.50;;;;;;4421267;28;657307;-68
2021/04/28 01:45:03;;;;;;;21.20;6.97;;;2.90;63.60;;;;;;4446518;28;656169;-68
2021/04/28 01:47:50;;;;;;;15.37;6.50;;;2.80;63.30;;;;;;4447525;28;657194;-68
2021/04/28 01:50:37;;;;;;;17.13;6.93;;;2.90;63.80;;;;;;4443377;28;656878;-68
2021/04/28 01:53:25;;;;;;;20.47;7.47;;;2.80;63.70;;;;;;4446902;28;656436;-68
2021/04/28 01:56:13;;;;;;;16.70;7.10;;;2.90;63.60;;;;;;4438899;28;657239;-68
2021/04/28 01:59:00;;;;;;;20.90;6.90;;;2.80;63.50;;;;;;4448162;28;657414;-68
2021/04/28 02:01:48;;;;;;;22.93;7.50;;;2.80;64.00;;;;;;4427938;28;656540;-68
2021/04/28 02:04:35;;;;;;;18.47;7.43;;;2.70;63.90;;;;;;4446922;28;657645;-68
2021/04/28 02:07:25;;;;;;;25.70;8.27;;;2.70;64.40;;;;;;4423581;28;656509;-68
2021/04/28 02:10:13;;;;;;;28.60;8.13;;;2.60;64.50;;;;;;4428300;28;656592;-68
2021/04/28 02:13:01;;;;;;;23.67;7.87;;;2.50;64.90;;;;;;4450585;28;656284;-70
2021/04/28 02:15:48;;;;;;;25.20;9.00;;;2.60;64.90;;;;;;4427962;28;656263;-69
2021/04/28 02:18:36;;;;;;;19.47;7.43;;;2.50;64.90;;;;;;4442076;28;656863;-68
2021/04/28 02:21:23;;;;;;;19.67;7.50;;;2.50;64.80;;;;;;4419175;28;657050;-68
2021/04/28 02:24:12;;;;;;;16.70;6.60;;;2.50;64.80;;;;;;4446412;28;657687;-68
2021/04/28 02:26:58;;;;;;;18.50;6.63;;;2.50;65.00;;;;;;4420036;28;657388;-68
2021/04/28 02:29:46;;;;;;;18.77;7.17;;;2.50;65.40;;;;;;4450671;28;657020;-68
2021/04/28 02:32:33;;;;;;;21.88;7.10;;;2.50;65.00;;;;;;4428778;28;656641;-68
2021/04/28 02:35:20;;;;;;;16.33;6.93;;;2.40;64.70;;;;;;4451026;28;656729;-68
2021/04/28 02:38:12;;;;;;;18.47;6.80;;;2.50;65.20;;;;;;4423738;28;656477;-68
2021/04/28 02:41:00;;;;;;;23.07;7.60;;;2.40;65.50;;;;;;4425013;28;659575;-69
2021/04/28 02:43:47;;;;;;;17.33;7.03;;;2.40;65.60;;;;;;4427614;28;656468;-68
2021/04/28 02:46:35;;;;;;;19.00;6.93;;;2.20;65.70;;;;;;4451365;28;656151;-68
2021/04/28 02:49:22;;;;;;;18.23;7.37;;;2.20;66.00;;;;;;4429332;28;656571;-68
2021/04/28 02:52:09;;;;;;;13.43;6.70;;;2.20;66.30;;;;;;4454499;28;656253;-69
2021/04/28 02:54:56;;;;;;;15.23;7.43;;;2.10;66.40;;;;;;4440774;28;656600;-68
2021/04/28 02:57:47;;;;;;;18.17;7.23;;;2.00;66.80;;;;;;4428050;28;656852;-68
2021/04/28 03:00:34;;;;;;;18.00;7.33;;;1.90;67.60;;;;;;4429239;28;656522;-67
2021/04/28 03:03:22;;;;;;;15.07;7.47;;;1.90;67.60;;;;;;4445117;28;657333;-68
2021/04/28 03:06:09;;;;;;;18.10;6.70;;;1.80;67.90;;;;;;4430067;28;656458;-67
2021/04/28 03:08:56;;;;;;;16.83;6.70;;;1.80;68.70;;;;;;4449447;28;657148;-68
2021/04/28 03:11:43;;;;;;;18.73;7.93;;;1.70;68.70;;;;;;4426932;28;656645;-68
2021/04/28 03:14:31;;;;;;;16.57;7.23;;;1.70;68.70;;;;;;4448717;28;657473;-68
2021/04/28 03:17:18;;;;;;;16.50;7.20;;;1.70;68.70;;;;;;4430539;28;656735;-66
2021/04/28 03:20:06;;;;;;;18.23;8.00;;;1.70;68.70;;;;;;4449895;28;657258;-67
2021/04/28 03:22:53;;;;;;;19.30;8.10;;;1.70;68.70;;;;;;4427170;28;657047;-67
2021/04/28 03:25:40;;;;;;;20.83;7.93;;;1.70;68.70;;;;;;4450351;28;657375;-68
2021/04/28 03:28:28;;;;;;;18.63;7.77;;;1.70;69.20;;;;;;4430992;28;656969;-67
2021/04/28 03:31:14;;;;;;;15.60;6.90;;;1.70;69.40;;;;;;4449491;28;657368;-67
2021/04/28 03:34:02;;;;;;;15.57;6.70;;;1.70;69.60;;;;;;4448567;28;657039;-67
2021/04/28 03:36:50;;;;;;;16.00;6.53;;;1.80;69.60;;;;;;4421448;28;656638;-67
2021/04/28 03:39:37;;;;;;;14.23;6.77;;;1.80;69.70;;;;;;4448858;28;656224;-67
2021/04/28 03:42:24;;;;;;;17.47;6.77;;;1.80;69.50;;;;;;4430191;28;656511;-67
2021/04/28 03:45:11;;;;;;;14.97;7.07;;;1.90;69.60;;;;;;4449675;28;656866;-67
2021/04/28 03:47:58;;;;;;;14.60;6.87;;;1.90;69.60;;;;;;4427119;28;656678;-67
2021/04/28 03:50:45;;;;;;;14.00;6.95;;;1.90;70.10;;;;;;4445875;28;657495;-67
2021/04/28 03:53:33;;;;;;;17.63;7.57;;;1.90;70.30;;;;;;4430769;28;656177;-67
2021/04/28 03:56:20;;;;;;;14.50;6.60;;;1.90;69.80;;;;;;4448583;28;657620;-67
2021/04/28 03:59:07;;;;;;;16.80;7.22;;;2.00;69.50;;;;;;4429220;28;656682;-67
2021/04/28 04:01:54;;;;;;;18.33;7.57;;;2.00;69.50;;;;;;4453579;28;657490;-68
2021/04/28 04:04:41;;;;;;;16.07;6.93;;;2.00;69.50;;;;;;4448596;28;657012;-68
2021/04/28 04:07:28;;;;;;;17.37;6.80;;;2.10;69.70;;;;;;4427790;28;656386;-67
2021/04/28 04:10:16;;;;;;;18.27;7.43;;;2.10;69.60;;;;;;4444921;28;657077;-67
2021/04/28 04:13:03;;;;;;;21.30;7.33;;;2.20;69.60;;;;;;4429653;28;656891;-67
2021/04/28 04:15:50;;;;;;;17.20;7.87;;;2.30;69.70;;;;;;4443714;28;656830;-67
2021/04/28 04:18:37;;;;;;;18.45;8.55;;;2.40;69.80;;;;;;4435377;28;656946;-67
2021/04/28 04:21:24;;;;;;;27.37;9.47;;;2.50;69.50;;;;;;4453721;28;656685;-67
2021/04/28 04:24:12;;;;;;;21.77;9.93;;;2.60;69.60;;;;;;4448345;28;656453;-67
2021/04/28 04:27:00;;;;;;;31.23;12.63;;;2.70;69.70;;;;;;4420863;28;656660;-67
2021/04/28 04:29:47;;;;;;;39.23;13.93;;;2.80;69.30;;;;;;4447222;28;657966;-67
2021/04/28 04:32:34;;;;;;;31.40;10.57;;;2.90;69.10;;;;;;4448398;28;657223;-67
2021/04/28 04:35:21;;;;;;;36.60;10.07;;;3.10;68.70;;;;;;4443403;28;657614;-68
2021/04/28 04:38:08;;;;;;;30.53;11.33;;;3.20;68.70;;;;;;4428216;28;657971;-68
2021/04/28 04:40:55;;;;;;;20.83;8.77;;;3.30;68.20;;;;;;4434723;28;657134;-68
2021/04/28 04:43:43;;;;;;;21.13;9.00;;;3.40;67.90;;;;;;4431830;28;656862;-67
2021/04/28 04:46:30;;;;;;;24.90;8.97;;;3.50;67.60;;;;;;4439202;28;656593;-67
2021/04/28 04:49:17;;;;;;;23.00;9.70;;;3.60;67.40;;;;;;4422611;28;656758;-66
2021/04/28 04:52:05;;;;;;;20.97;8.90;;;3.80;67.40;;;;;;4447344;28;656263;-68
2021/04/28 04:54:52;;;;;;;17.93;8.20;;;3.90;67.00;;;;;;4434581;28;656793;-67
2021/04/28 04:57:39;;;;;;;17.57;7.23;;;4.10;67.20;;;;;;4431790;28;656573;-67
2021/04/28 05:00:27;;;;;;;17.90;7.32;;;4.20;66.60;;;;;;4449037;28;656958;-68
2021/04/28 05:03:14;;;;;;;15.87;6.67;;;4.30;66.40;;;;;;4422932;28;657726;-67
2021/04/28 05:06:01;;;;;;;22.87;7.00;;;4.40;65.80;;;;;;4440289;28;657188;-68
2021/04/28 05:08:48;;;;;;;14.77;7.40;;;4.50;65.60;;;;;;4429175;28;656656;-67
2021/04/28 05:11:35;;;;;;;21.90;9.13;;;4.70;65.50;;;;;;4451591;28;656518;-67
2021/04/28 05:14:22;;;;;;;37.53;12.03;;;4.80;65.80;;;;;;4431567;28;656565;-68
2021/04/28 05:17:10;;;;;;;20.38;7.80;;;5.00;65.30;;;;;;4449736;28;657539;-67
2021/04/28 05:19:57;;;;;;;26.83;8.50;;;5.10;64.80;;;;;;4431391;28;656805;-68
2021/04/28 05:22:44;;;;;;;13.52;6.40;;;5.30;64.50;;;;;;4451110;28;655928;-67
2021/04/28 05:25:31;;;;;;;12.53;6.30;;;5.40;64.20;;;;;;4447871;28;656768;-67
2021/04/28 05:28:18;;;;;;;12.03;6.23;;;5.50;64.00;;;;;;4427720;28;656522;-67
2021/04/28 05:31:05;;;;;;;14.90;6.10;;;5.60;63.60;;;;;;4447925;28;657602;-67
2021/04/28 05:33:53;;;;;;;18.23;7.40;;;5.70;63.20;;;;;;4428342;28;656495;-67
2021/04/28 05:36:40;;;;;;;15.80;7.23;;;5.80;63.10;;;;;;4449257;28;657275;-67
2021/04/28 05:39:27;;;;;;;13.30;6.37;;;6.00;62.90;;;;;;4419887;28;656408;-67
2021/04/28 05:42:14;;;;;;;13.20;6.33;;;6.10;62.80;;;;;;4450363;28;656836;-67
2021/04/28 05:45:01;;;;;;;13.00;5.87;;;6.20;61.40;;;;;;4442624;28;656908;-67
2021/04/28 05:47:49;;;;;;;15.97;5.87;;;6.30;61.30;;;;;;4420034;28;656643;-67
2021/04/28 05:50:37;;;;;;;15.53;5.60;;;6.40;60.80;;;;;;4440378;28;657355;-68
2021/04/28 05:53:24;;;;;;;20.60;6.77;;;6.50;60.40;;;;;;4429135;28;656816;-68
2021/04/28 05:56:11;;;;;;;19.90;6.50;;;6.60;60.10;;;;;;4446810;28;657393;-68
2021/04/28 05:58:58;;;;;;;14.37;6.63;;;6.80;60.80;;;;;;4427546;28;656543;-67
2021/04/28 06:01:45;;;;;;;14.07;6.53;;;6.90;61.80;;;;;;4447848;28;657186;-67
2021/04/28 06:04:32;;;;;;;15.13;6.07;;;7.00;61.00;;;;;;4445598;28;656593;-67
2021/04/28 06:07:20;;;;;;;12.03;6.37;;;7.10;59.50;;;;;;4443669;28;656355;-67
2021/04/28 06:10:08;;;;;;;13.43;6.00;;;7.20;59.00;;;;;;4428451;28;656914;-67
2021/04/28 06:12:55;;;;;;;11.77;5.60;;;7.40;59.70;;;;;;4450339;28;656798;-67
2021/04/28 06:15:42;;;;;;;12.55;5.20;;;7.50;58.80;;;;;;4428204;28;657066;-67
2021/04/28 06:18:29;;;;;;;12.20;5.53;;;7.60;58.20;;;;;;4445085;28;656377;-67
2021/04/28 06:21:16;;;;;;;11.67;5.50;;;7.70;57.40;;;;;;4449852;28;656261;-68
2021/04/28 06:24:06;;;;;;;11.00;5.13;;;7.80;57.20;;;;;;4428003;28;656634;-67
2021/04/28 06:26:53;;;;;;;12.63;5.43;;;7.90;57.50;;;;;;4425786;28;656491;-67
2021/04/28 06:29:40;;;;;;;14.40;5.33;;;8.00;57.40;;;;;;4450046;28;657591;-68
2021/04/28 06:32:27;;;;;;;9.27;4.70;;;8.20;57.40;;;;;;4434527;28;656350;-67
2021/04/28 06:35:15;;;;;;;12.37;5.00;;;8.30;57.00;;;;;;4452582;28;655525;-69
2021/04/28 06:38:02;;;;;;;7.63;4.20;;;8.40;56.20;;;;;;4450979;28;656587;-68
2021/04/28 06:40:49;;;;;;;12.33;5.60;;;8.50;56.20;;;;;;4433216;28;655773;-68
2021/04/28 06:43:36;;;;;;;10.30;5.30;;;8.60;56.10;;;;;;4447593;28;656141;-68
2021/04/28 06:46:23;;;;;;;10.07;5.17;;;8.70;56.00;;;;;;4422945;28;656427;-67
2021/04/28 06:49:10;;;;;;;13.07;4.67;;;8.80;55.90;;;;;;4450133;28;657470;-67
2021/04/28 06:51:58;;;;;;;9.10;4.60;;;8.90;55.60;;;;;;4415443;28;656885;-67
2021/04/28 06:54:45;;;;;;;14.17;6.17;;;9.00;55.30;;;;;;4434206;28;656803;-68
2021/04/28 06:57:33;;;;;;;14.90;5.20;;;9.20;56.00;;;;;;4441476;28;656967;-68
2021/04/28 07:00:21;;;;;;;16.37;7.50;;;9.40;55.80;;;;;;4450627;28;656957;-68
2021/04/28 07:03:08;;;;;;;7.80;4.43;;;9.60;55.80;;;;;;4432077;28;656622;-67
2021/04/28 07:05:55;;;;;;;9.77;4.50;;;9.80;55.40;;;;;;4446027;28;656872;-68
2021/04/28 07:08:42;;;;;;;7.77;4.53;;;9.90;54.10;;;;;;4441246;28;656110;-67
2021/04/28 07:11:29;;;;;;;9.40;4.87;;;10.00;52.80;;;;;;4453644;28;655989;-68
2021/04/28 07:14:17;;;;;;;8.73;4.40;;;10.20;52.40;;;;;;4449870;28;657347;-68
2021/04/28 07:17:05;;;;;;;9.53;4.90;;;10.40;52.30;;;;;;4429453;28;657256;-68
2021/04/28 07:19:52;;;;;;;7.87;4.37;;;10.60;53.30;;;;;;4452560;28;657325;-67
2021/04/28 07:22:39;;;;;;;10.50;4.23;;;10.80;51.70;;;;;;4431508;28;656906;-68
2021/04/28 07:25:27;;;;;;;7.55;4.80;;;11.00;52.20;;;;;;4444155;28;657723;-68
2021/04/28 07:28:14;;;;;;;12.57;5.27;;;11.30;52.60;;;;;;4428662;28;656626;-67
2021/04/28 07:31:02;;;;;;;10.73;4.93;;;11.50;51.80;;;;;;4440229;28;657964;-68
2021/04/28 07:33:49;;;;;;;9.10;4.50;;;11.70;52.60;;;;;;4428520;28;657992;-68
2021/04/28 07:36:35;;;;;;;11.07;4.73;;;11.90;51.50;;;;;;4449189;28;656675;-68
2021/04/28 07:39:22;;;;;;;11.50;5.10;;;12.10;51.30;;;;;;4429638;28;657554;-67
2021/04/28 07:42:10;;;;;;;10.60;4.60;;;12.30;51.10;;;;;;4447039;28;657323;-68
2021/04/28 07:44:57;;;;;;;14.10;5.50;;;12.50;51.00;;;;;;4452092;28;657951;-69
2021/04/28 07:47:44;;;;;;;9.10;4.50;;;12.70;50.20;;;;;;4429852;28;657687;-68
2021/04/28 07:50:31;;;;;;;8.30;4.47;;;12.80;49.20;;;;;;4450487;28;657285;-68
2021/04/28 07:53:18;;;;;;;8.03;4.13;;;12.80;49.20;;;;;;4431312;28;657030;-68
2021/04/28 07:56:05;;;;;;;7.90;4.60;;;12.90;49.90;;;;;;4449053;28;657185;-68
2021/04/28 07:58:52;;;;;;;8.23;4.43;;;13.10;49.80;;;;;;4431357;28;656922;-68
2021/04/28 08:01:39;;;;;;;10.70;4.70;;;13.30;49.90;;;;;;4454953;28;656410;-67
2021/04/28 08:04:27;;;;;;;8.57;4.27;;;13.40;50.50;;;;;;4448437;28;658396;-68
2021/04/28 08:07:14;;;;;;;8.10;4.40;;;13.50;48.10;;;;;;4430458;28;656391;-68
2021/04/28 08:10:01;;;;;;;8.57;5.10;;;13.50;48.30;;;;;;4450426;28;657091;-68
2021/04/28 08:12:48;;;;;;;14.43;5.43;;;13.40;47.90;;;;;;4429352;28;656583;-68
2021/04/28 08:15:36;;;;;;;14.00;5.93;;;13.60;49.80;;;;;;4440541;28;658516;-68
2021/04/28 08:18:23;;;;;;;10.07;5.30;;;13.70;49.40;;;;;;4429746;28;657357;-68
2021/04/28 08:21:10;;;;;;;9.40;4.87;;;13.80;48.80;;;;;;4449047;28;658509;-68
2021/04/28 08:23:57;;;;;;;11.47;5.60;;;13.90;48.30;;;;;;4425102;28;656332;-68
2021/04/28 08:26:45;;;;;;;12.80;6.07;;;13.90;48.10;;;;;;4451601;28;657284;-68
2021/04/28 08:29:32;;;;;;;12.00;5.43;;;14.20;49.20;;;;;;4429395;28;657936;-68
2021/04/28 08:32:19;;;;;;;11.27;5.47;;;14.20;48.00;;;;;;4445009;28;657222;-68
2021/04/28 08:35:07;;;;;;;11.77;5.23;;;14.30;49.30;;;;;;4447511;28;657344;-68
2021/04/28 08:37:55;;;;;;;9.60;5.20;;;14.50;48.60;;;;;;4417344;28;659472;-69
2021/04/28 08:40:42;;;;;;;11.07;5.13;;;14.60;48.60;;;;;;4436262;28;656639;-68
2021/04/28 08:43:29;;;;;;;9.50;4.97;;;14.70;48.50;;;;;;4446393;28;657452;-68
2021/04/28 08:46:17;;;;;;;9.47;5.40;;;14.70;47.50;;;;;;4440282;28;656955;-69
2021/04/28 08:49:04;;;;;;;9.53;5.33;;;15.00;47.90;;;;;;4429273;28;658112;-68
2021/04/28 08:51:52;;;;;;;10.70;5.40;;;15.20;48.30;;;;;;4448573;28;657086;-68
2021/04/28 08:54:40;;;;;;;11.07;5.30;;;15.10;48.40;;;;;;4424059;28;658610;-68
2021/04/28 08:57:28;;;;;;;8.07;5.07;;;15.20;48.30;;;;;;4437041;28;657730;-68
2021/04/28 09:00:16;;;;;;;8.13;5.20;;;15.50;48.20;;;;;;4453022;28;658406;-69
2021/04/28 09:03:03;;;;;;;10.53;4.70;;;15.40;47.50;;;;;;4429460;28;656608;-69
2021/04/28 09:05:50;;;;;;;7.70;4.57;;;15.80;46.40;;;;;;4439947;28;658874;-68
2021/04/28 09:08:47;;;;;;;12.03;5.00;;;15.80;45.50;;;;;;4444789;28;656558;-68
2021/04/28 09:11:36;;;;;;;8.37;4.87;;;15.70;45.40;;;;;;4400899;28;657976;-68
2021/04/28 09:14:24;;;;;;;13.23;4.63;;;15.80;46.00;;;;;;4426476;28;656487;-68
2021/04/28 09:17:11;;;;;;;9.73;5.23;;;16.10;46.90;;;;;;4446667;28;657790;-68
2021/04/28 09:20:14;;;;;;;9.70;5.03;;;16.20;46.60;;;;;;4418799;28;656863;-68
2021/04/28 09:23:19;;;;;;;8.10;4.60;;;16.10;46.40;;;;;;4425726;28;656661;-68
2021/04/28 09:26:15;;;;;;;12.40;6.23;;;16.00;46.40;;;;;;4425275;28;657516;-69
2021/04/28 09:29:03;;;;;;;13.10;5.93;;;16.30;46.20;;;;;;4397956;28;657422;-68
2021/04/28 09:32:04;;;;;;;9.70;5.60;;;16.60;46.10;;;;;;4440486;28;658164;-68
2021/04/28 09:34:51;;;;;;;9.83;5.80;;;16.40;45.70;;;;;;4424642;28;656679;-68
2021/04/28 09:37:50;;;;;;;10.17;5.97;;;16.50;45.10;;;;;;4426924;28;656490;-68
2021/04/28 09:40:42;;;;;;;13.77;5.57;;;16.90;47.50;;;;;;4408809;28;657652;-68
2021/04/28 09:43:36;;;;;;;10.05;5.57;;;17.20;47.90;;;;;;4426963;28;657729;-68
2021/04/28 09:46:24;;;;;;;12.03;5.20;;;17.40;46.60;;;;;;4400533;28;658071;-70
2021/04/28 09:49:11;;;;;;;12.70;5.37;;;17.80;46.50;;;;;;4433897;28;658850;-70
2021/04/28 09:52:02;;;;;;;11.40;6.00;;;17.90;44.50;;;;;;4422713;28;659108;-70
2021/04/28 09:54:50;;;;;;;15.50;5.83;;;17.80;44.70;;;;;;4419502;28;659478;-68
2021/04/28 09:57:38;;;;;;;10.97;5.43;;;17.80;45.10;;;;;;4430310;28;658415;-68
2021/04/28 10:00:27;;;;;;;11.15;5.82;;;17.80;44.70;;;;;;4445873;28;660642;-68
2021/04/28 10:03:15;;;;;;;15.97;5.87;;;17.80;43.30;;;;;;4419458;28;659710;-68
2021/04/28 10:06:02;;;;;;;9.60;5.77;;;17.80;43.60;;;;;;4420395;28;658613;-69
2021/04/28 10:08:49;;;;;;;10.47;5.60;;;18.00;44.00;;;;;;4449424;28;658506;-69
2021/04/28 10:11:36;;;;;;;8.37;5.30;;;18.10;44.30;;;;;;4445923;28;658336;-68
2021/04/28 10:14:23;;;;;;;8.13;4.90;;;18.40;42.60;;;;;;4422616;28;657678;-69
2021/04/28 10:17:10;;;;;;;10.63;4.97;;;18.70;44.50;;;;;;4438216;28;657898;-69
2021/04/28 10:19:59;;;;;;;9.17;4.70;;;18.60;40.90;;;;;;4426151;28;659154;-69
2021/04/28 10:22:46;;;;;;;11.63;5.10;;;18.50;42.60;;;;;;4446561;28;657436;-69
2021/04/28 10:25:33;;;;;;;10.70;5.27;;;18.60;42.00;;;;;;4426828;28;658927;-70
2021/04/28 10:28:20;;;;;;;12.30;5.00;;;19.00;40.30;;;;;;4448021;28;659387;-70
2021/04/28 10:31:07;;;;;;;9.00;4.47;;;19.10;42.30;;;;;;4426182;28;658869;-69
2021/04/28 10:33:54;;;;;;;8.27;4.90;;;18.90;40.30;;;;;;4450640;28;657499;-69
2021/04/28 10:36:43;;;;;;;12.57;6.07;;;19.10;40.30;;;;;;4445364;28;657569;-69
2021/04/28 10:39:30;;;;;;;9.90;5.77;;;19.10;41.40;;;;;;4417805;28;659249;-69
2021/04/28 10:42:27;;;;;;;8.90;5.30;;;18.90;40.20;;;;;;4414180;28;657673;-69
2021/04/28 10:45:28;;;;;;;10.43;5.77;;;18.30;40.40;;;;;;4392608;28;658670;-69
2021/04/28 10:48:21;;;;;;;9.37;5.77;;;18.40;43.00;;;;;;4422327;28;658792;-69
2021/04/28 10:51:08;;;;;;;9.50;5.13;;;18.60;41.70;;;;;;4403025;28;657876;-69
2021/04/28 10:54:19;;;;;;;10.33;5.63;;;19.00;41.40;;;;;;4447535;28;658613;-69
2021/04/28 10:57:07;;;;;;;11.67;5.80;;;19.20;41.50;;;;;;4411149;28;659480;-69
2021/04/28 10:59:56;;;;;;;10.97;5.67;;;19.30;44.50;;;;;;4425818;28;660172;-68
2021/04/28 11:02:43;;;;;;;10.83;5.30;;;19.20;43.40;;;;;;4418779;28;658233;-69
2021/04/28 11:05:30;;;;;;;10.40;5.63;;;19.30;41.40;;;;;;4447566;28;658274;-69
2021/04/28 11:08:17;;;;;;;11.63;5.63;;;19.30;41.00;;;;;;4425768;28;659638;-69
2021/04/28 11:11:09;;;;;;;10.10;5.20;;;19.50;40.40;;;;;;4451120;28;659148;-69
2021/04/28 11:14:30;;;;;;;10.67;5.30;;;19.60;41.70;;;;;;4424921;28;659677;-69
2021/04/28 11:17:30;;;;;;;10.60;5.20;;;19.70;41.60;;;;;;4413582;28;658668;-69
2021/04/28 11:20:21;;;;;;;9.17;4.97;;;20.10;41.10;;;;;;4436180;28;658117;-69
2021/04/28 11:23:22;;;;;;;10.60;5.30;;;20.10;41.20;;;;;;4425579;28;657667;-69
2021/04/28 11:26:27;;;;;;;12.27;5.23;;;20.00;39.50;;;;;;4429580;28;658666;-69
2021/04/28 11:29:14;;;;;;;10.20;5.47;;;19.80;40.20;;;;;;4402771;28;658806;-68
2021/04/28 11:32:02;;;;;;;7.63;5.10;;;19.80;40.40;;;;;;4446670;28;659417;-69
2021/04/28 11:34:51;;;;;;;8.27;5.00;;;19.90;44.30;;;;;;4425325;28;659119;-69
2021/04/28 11:37:38;;;;;;;9.73;5.47;;;20.10;40.50;;;;;;4430014;28;657817;-69
2021/04/28 11:40:25;;;;;;;10.03;5.27;;;20.60;41.50;;;;;;4447383;28;658339;-69
2021/04/28 11:43:13;;;;;;;11.80;5.40;;;21.00;38.80;;;;;;4445421;28;658398;-69
2021/04/28 11:46:04;;;;;;;10.00;5.03;;;21.40;40.60;;;;;;4444372;28;659394;-69
2021/04/28 11:48:52;;;;;;;8.57;5.20;;;21.30;38.90;;;;;;4424739;28;658340;-69
2021/04/28 11:51:39;;;;;;;9.23;4.83;;;21.10;37.80;;;;;;4425696;28;659459;-68
2021/04/28 11:54:26;;;;;;;12.30;5.60;;;20.60;38.60;;;;;;4435630;28;657428;-68
2021/04/28 11:57:13;;;;;;;13.00;5.00;;;20.30;38.60;;;;;;4428652;28;658483;-68
2021/04/28 12:00:03;;;;;;;9.37;5.23;;;20.50;42.80;;;;;;4444460;28;659402;-69
2021/04/28 12:03:01;;;;;;;10.03;5.30;;;20.50;42.10;;;;;;4401971;28;658448;-69
2021/04/28 12:05:49;;;;;;;9.27;5.40;;;20.50;40.50;;;;;;4399051;28;659364;-69
2021/04/28 12:08:36;;;;;;;10.23;5.20;;;20.30;40.30;;;;;;4448403;28;657277;-68
2021/04/28 12:11:23;;;;;;;11.93;5.27;;;20.50;40.10;;;;;;4421985;28;658674;-69
2021/04/28 12:14:10;;;;;;;10.17;5.20;;;20.80;40.20;;;;;;4439716;28;658911;-70
2021/04/28 12:16:58;;;;;;;7.43;4.60;;;21.00;40.00;;;;;;4428649;28;659321;-69
2021/04/28 12:19:46;;;;;;;9.93;4.70;;;21.50;41.60;;;;;;4441379;28;657901;-69
2021/04/28 12:22:33;;;;;;;10.60;4.60;;;21.80;40.50;;;;;;4429861;28;657490;-69
2021/04/28 12:25:20;;;;;;;9.67;4.80;;;21.80;39.00;;;;;;4440713;28;659520;-68
2021/04/28 12:28:07;;;;;;;8.20;5.03;;;21.30;38.00;;;;;;4428430;28;658481;-68
2021/04/28 12:30:55;;;;;;;10.53;4.33;;;21.50;40.20;;;;;;4451812;28;657618;-68
2021/04/28 12:33:44;;;;;;;7.77;4.50;;;21.80;40.20;;;;;;4436673;28;658711;-68
2021/04/28 12:36:30;;;;;;;12.37;4.60;;;22.00;37.10;;;;;;4437744;28;657722;-68
2021/04/28 12:39:25;;;;;;;12.37;5.33;;;21.60;39.10;;;;;;4428046;28;658717;-68
2021/04/28 12:42:12;;;;;;;10.77;4.43;;;21.60;38.60;;;;;;4404619;28;658495;-69
2021/04/28 12:45:01;;;;;;;7.93;4.77;;;21.90;37.70;;;;;;4444278;28;658628;-69
2021/04/28 12:47:47;;;;;;;10.97;5.40;;;22.30;36.40;;;;;;4424950;28;657888;-68
2021/04/28 12:50:35;;;;;;;6.73;4.87;;;22.30;37.00;;;;;;4428581;28;659825;-68
2021/04/28 12:53:22;;;;;;;11.57;5.10;;;22.40;39.00;;;;;;4420288;28;658055;-68
2021/04/28 12:56:09;;;;;;;9.97;4.80;;;22.10;36.40;;;;;;4449169;28;658739;-68
2021/04/28 12:58:56;;;;;;;11.83;5.20;;;21.90;38.10;;;;;;4447278;28;657586;-68
2021/04/28 13:01:46;;;;;;;8.43;4.60;;;22.10;38.80;;;;;;4422745;28;659196;-69
2021/04/28 13:04:33;;;;;;;13.37;7.40;;;21.80;38.20;;;;;;4426758;28;658147;-68
2021/04/28 13:07:27;;;;;;;11.73;6.83;;;22.10;38.60;;;;;;4446036;28;659557;-70
2021/04/28 13:10:14;;;;;;;11.33;4.47;;;21.40;36.60;;;;;;4417557;28;658952;-69
2021/04/28 13:13:02;;;;;;;11.97;4.63;;;21.40;38.50;;;;;;4445558;28;658904;-69
2021/04/28 13:15:49;;;;;;;10.53;5.07;;;21.50;38.00;;;;;;4420219;28;658995;-69
2021/04/28 13:18:48;;;;;;;9.50;5.10;;;21.70;38.10;;;;;;4438325;28;659070;-69
2021/04/28 13:21:37;;;;;;;20.73;11.60;;;22.00;39.90;;;;;;4420519;28;658403;-69
2021/04/28 13:24:25;;;;;;;11.17;5.07;;;22.30;37.60;;;;;;4421553;28;660830;-68
2021/04/28 13:27:15;;;;;;;10.77;5.27;;;22.50;37.10;;;;;;4426457;28;658666;-69
2021/04/28 13:30:06;;;;;;;10.20;5.30;;;22.90;37.00;;;;;;4438333;28;659044;-69
2021/04/28 13:32:54;;;;;;;11.63;6.20;;;23.00;37.40;;;;;;4424072;28;659443;-69
2021/04/28 13:35:41;;;;;;;10.90;5.00;;;23.10;36.80;;;;;;4436118;28;659002;-69
2021/04/28 13:38:28;;;;;;;8.97;4.40;;;22.70;38.10;;;;;;4425631;28;658974;-69
2021/04/28 13:41:16;;;;;;;13.90;5.03;;;22.50;35.80;;;;;;4445583;28;658588;-69
2021/04/28 13:44:05;;;;;;;13.63;7.20;;;22.20;36.00;;;;;;4423565;28;658385;-68
2021/04/28 13:46:54;;;;;;;16.47;8.63;;;22.40;36.20;;;;;;4445484;28;658654;-69
2021/04/28 13:49:41;;;;;;;10.50;4.83;;;22.70;37.80;;;;;;4445388;28;659055;-70
2021/04/28 13:52:28;;;;;;;7.18;4.68;;;23.00;36.70;;;;;;4427494;28;658657;-68
2021/04/28 13:55:15;;;;;;;13.87;6.77;;;23.00;37.40;;;;;;4447703;28;658557;-70
2021/04/28 13:58:04;;;;;;;11.40;5.50;;;23.20;36.00;;;;;;4426756;28;659112;-68
2021/04/28 14:00:51;;;;;;;12.93;5.80;;;23.60;35.20;;;;;;4446333;28;658799;-68
2021/04/28 14:03:38;;;;;;;12.37;5.73;;;23.80;36.20;;;;;;4422223;28;658486;-68
2021/04/28 14:06:25;;;;;;;7.10;4.40;;;23.70;33.50;;;;;;4449697;28;658735;-69
2021/04/28 14:09:13;;;;;;;9.20;4.50;;;23.60;35.40;;;;;;4423537;28;658372;-68
2021/04/28 14:12:00;;;;;;;9.93;4.90;;;23.60;34.50;;;;;;4442577;28;658523;-68
2021/04/28 14:14:48;;;;;;;9.90;5.13;;;23.40;34.40;;;;;;4442013;28;657887;-68
2021/04/28 14:17:35;;;;;;;16.37;7.33;;;23.40;34.00;;;;;;4446444;28;657437;-68
2021/04/28 14:20:22;;;;;;;16.33;5.40;;;23.10;35.30;;;;;;4426687;28;658941;-68